Time;durP1;ratioP1;P1;durP2;ratioP2;P2;SDS_P1;SDS_P2;PMS_P1;PMS_P2;Temp;Humidity;BMP_temperature;BMP_pressure;BME280_temperature;BME280_humidity;BME280_pressure;Samples;Min_cycle;Max_cycle;Signal;HPM_P1;HPM_P2
2021/07/25 00:01:59;;;;;;;18.30;15.00;;;;;;;20.33;63.67;100361.42;92970;1207;75335;-62
2021/07/25 00:04:07;;;;;;;15.30;13.60;;;;;;;20.28;63.81;100366.00;92956;1207;82629;-66
2021/07/25 00:06:19;;;;;;;20.10;14.40;;;;;;;20.27;63.90;100362.42;92964;1208;66559;-64
2021/07/25 00:08:27;;;;;;;17.30;14.00;;;;;;;20.23;64.31;100361.26;92933;1207;67616;-67
2021/07/25 00:10:34;;;;;;;17.20;12.40;;;;;;;20.21;64.61;100366.17;92938;1207;85919;-64
2021/07/25 00:12:42;;;;;;;15.10;13.30;;;;;;;20.16;64.56;100365.27;92966;1207;74183;-64
2021/07/25 00:14:50;;;;;;;14.10;11.90;;;;;;;20.19;64.71;100357.34;92958;1207;81525;-64
2021/07/25 00:16:58;;;;;;;16.80;12.40;;;;;;;20.21;64.44;100360.69;92941;1211;65673;-65
2021/07/25 00:19:09;;;;;;;15.00;11.70;;;;;;;20.25;64.27;100358.28;92943;1216;68397;-57
2021/07/25 00:21:18;;;;;;;16.90;11.80;;;;;;;20.23;64.35;100355.77;92924;1208;86581;-65
2021/07/25 00:23:27;;;;;;;14.30;12.20;;;;;;;20.21;64.55;100354.37;92942;1205;75614;-61
2021/07/25 00:25:35;;;;;;;14.70;12.90;;;;;;;20.19;64.67;100351.05;92923;1215;81042;-58
2021/07/25 00:27:43;;;;;;;16.70;12.30;;;;;;;20.16;64.55;100346.88;92931;1215;67004;-58
2021/07/25 00:29:51;;;;;;;14.60;11.40;;;;;;;20.14;64.63;100332.59;92935;1208;69388;-63
2021/07/25 00:32:00;;;;;;;13.20;11.80;;;;;;;20.11;64.61;100337.78;92935;1214;87028;-65
2021/07/25 00:34:08;;;;;;;15.70;12.40;;;;;;;20.11;64.56;100335.03;92908;1210;76452;-64
2021/07/25 00:36:16;;;;;;;13.40;11.60;;;;;;;20.13;64.24;100325.47;92929;1207;81228;-64
2021/07/25 00:38:23;;;;;;;14.00;12.50;;;;;;;20.15;64.36;100327.94;92845;1210;65010;-63
2021/07/25 00:40:39;;;;;;;14.50;12.10;;;;;;;20.16;64.18;100322.19;92971;1210;67355;-58
2021/07/25 00:42:47;;;;;;;13.80;12.30;;;;;;;20.17;64.47;100320.28;92955;1207;85211;-58
2021/07/25 00:44:54;;;;;;;15.50;13.00;;;;;;;20.17;64.22;100329.34;92945;1205;75371;-63
2021/07/25 00:47:03;;;;;;;16.00;12.20;;;;;;;20.17;64.07;100323.86;92941;1205;85954;-64
2021/07/25 00:49:11;;;;;;;13.90;12.50;;;;;;;20.17;64.21;100320.28;92942;1212;65607;-65
2021/07/25 00:51:19;;;;;;;16.50;13.30;;;;;;;20.16;63.81;100318.64;92956;1207;67847;-58
2021/07/25 00:53:27;;;;;;;16.90;13.10;;;;;;;20.15;63.88;100317.80;92855;1208;88011;-58
2021/07/25 00:55:36;;;;;;;16.20;13.20;;;;;;;20.13;63.83;100319.98;92876;1210;74011;-57
2021/07/25 00:57:44;;;;;;;14.60;12.90;;;;;;;20.12;64.02;100322.95;92946;1215;81110;-57
2021/07/25 00:59:52;;;;;;;15.20;12.90;;;;;;;20.10;63.94;100336.11;92920;1211;66305;-65
2021/07/25 01:01:59;;;;;;;13.10;11.30;;;;;;;20.07;63.77;100329.22;92886;1217;70272;-67
2021/07/25 01:04:31;;;;;;;13.80;11.80;;;;;;;20.06;64.08;100313.83;92867;1210;86961;-64
2021/07/25 01:07:03;;;;;;;12.60;11.30;;;;;;;20.05;64.03;100312.19;92965;1210;74108;-64
2021/07/25 01:09:21;;;;;;;12.90;11.50;;;;;;;20.07;63.71;100307.28;92923;1208;82754;-64
2021/07/25 01:11:36;;;;;;;15.10;11.60;;;;;;;20.09;63.72;100307.00;92926;1207;65413;-63
2021/07/25 01:13:51;;;;;;;14.50;11.80;;;;;;;20.10;63.76;100311.42;92960;1208;69028;-64
2021/07/25 01:16:02;;;;;;;15.30;11.10;;;;;;;20.10;63.46;100308.68;92933;1210;87114;-58
2021/07/25 01:18:10;;;;;;;14.10;11.70;;;;;;;20.03;63.81;100304.20;92963;1209;75127;-57
2021/07/25 01:20:18;;;;;;;14.90;11.60;;;;;;;20.03;63.53;100306.94;92959;1212;81372;-65
2021/07/25 01:22:26;;;;;;;13.70;11.50;;;;;;;20.02;63.49;100308.02;92955;1209;67199;-65
2021/07/25 01:24:34;;;;;;;14.60;11.50;;;;;;;20.00;63.49;100307.45;92954;1208;69489;-59
2021/07/25 01:26:45;;;;;;;13.60;12.00;;;;;;;19.99;63.54;100318.68;92951;1208;86944;-58
2021/07/25 01:28:58;;;;;;;22.00;16.40;;;;;;;19.96;63.60;100310.95;92957;1208;75408;-59
2021/07/25 01:31:14;;;;;;;18.70;16.60;;;;;;;19.94;63.61;100302.16;92952;1216;81845;-61
2021/07/25 01:33:26;;;;;;;37.00;32.40;;;;;;;19.93;63.55;100308.72;92945;1208;65387;-59
2021/07/25 01:35:35;;;;;;;31.70;26.10;;;;;;;19.91;63.48;100313.63;92944;1208;69430;-60
2021/07/25 01:37:44;;;;;;;21.40;19.30;;;;;;;19.91;63.36;100314.44;92704;1211;87093;-59
2021/07/25 01:39:54;;;;;;;15.10;12.00;;;;;;;19.91;63.35;100322.66;92985;1212;75989;-58
2021/07/25 01:42:02;;;;;;;13.30;11.90;;;;;;;19.93;63.69;100311.46;92963;1215;80673;-58
2021/07/25 01:44:10;;;;;;;12.80;10.90;;;;;;;19.91;63.54;100316.38;92960;1208;65680;-59
2021/07/25 01:46:18;;;;;;;13.70;11.10;;;;;;;19.89;63.61;100313.03;92905;1210;67854;-62
2021/07/25 01:48:26;;;;;;;13.50;11.00;;;;;;;19.87;63.71;100305.07;92944;1215;86736;-63
2021/07/25 01:50:34;;;;;;;16.40;11.40;;;;;;;19.82;63.61;100309.65;92942;1216;74901;-63
2021/07/25 01:52:42;;;;;;;13.50;12.10;;;;;;;19.73;63.88;100313.89;92941;1213;80648;-62
2021/07/25 01:54:50;;;;;;;15.00;12.00;;;;;;;19.67;64.12;100304.77;92862;1215;66651;-61
2021/07/25 01:56:57;;;;;;;11.80;10.60;;;;;;;19.64;64.00;100305.27;92944;1212;68856;-62
2021/07/25 01:59:05;;;;;;;14.30;11.20;;;;;;;19.63;63.80;100302.78;92936;1208;86789;-61
2021/07/25 02:01:13;;;;;;;13.10;11.00;;;;;;;19.61;64.12;100296.73;92963;1208;74279;-59
2021/07/25 02:03:24;;;;;;;14.60;12.30;;;;;;;19.59;64.07;100291.48;92965;1205;81359;-58
2021/07/25 02:05:32;;;;;;;12.70;10.60;;;;;;;19.57;64.10;100288.17;92866;1210;65953;-60
2021/07/25 02:07:39;;;;;;;14.50;11.60;;;;;;;19.55;64.03;100286.77;92931;1212;70927;-62
2021/07/25 02:09:47;;;;;;;14.60;12.00;;;;;;;19.50;64.30;100283.95;92933;1213;87869;-59
2021/07/25 02:11:55;;;;;;;14.30;11.90;;;;;;;19.42;64.10;100288.75;92853;1208;74661;-62
2021/07/25 02:14:03;;;;;;;13.50;11.90;;;;;;;19.37;64.11;100285.91;92929;1216;81696;-65
2021/07/25 02:16:10;;;;;;;14.00;11.30;;;;;;;19.33;64.43;100282.02;92914;1208;65764;-63
2021/07/25 02:18:20;;;;;;;13.10;11.70;;;;;;;19.23;64.31;100280.99;92954;1209;68999;-63
2021/07/25 02:20:28;;;;;;;14.80;11.30;;;;;;;19.12;64.64;100284.64;92865;1215;86805;-63
2021/07/25 02:22:36;;;;;;;14.60;11.80;;;;;;;19.06;64.89;100286.49;92886;1208;76270;-61
2021/07/25 02:24:43;;;;;;;20.00;17.40;;;;;;;18.97;65.02;100287.13;92861;1215;82047;-56
2021/07/25 02:26:52;;;;;;;17.00;14.90;;;;;;;18.85;65.37;100285.28;92913;1209;65730;-61
2021/07/25 02:28:59;;;;;;;16.60;12.80;;;;;;;18.77;65.51;100277.47;92986;1205;69638;-62
2021/07/25 02:31:07;;;;;;;14.70;12.40;;;;;;;18.70;65.83;100278.70;92946;1208;86746;-56
2021/07/25 02:33:15;;;;;;;13.30;11.10;;;;;;;18.62;65.81;100279.91;92931;1208;76048;-57
2021/07/25 02:35:22;;;;;;;13.60;11.20;;;;;;;18.53;66.13;100269.61;92845;1210;80300;-56
2021/07/25 02:37:30;;;;;;;15.80;11.00;;;;;;;18.45;66.33;100279.02;92930;1208;66809;-56
2021/07/25 02:39:37;;;;;;;13.20;11.30;;;;;;;18.39;66.65;100276.41;92867;1210;69531;-61
2021/07/25 02:41:45;;;;;;;14.40;11.40;;;;;;;18.33;66.73;100270.01;92933;1207;87090;-61
2021/07/25 02:43:53;;;;;;;14.60;12.20;;;;;;;18.33;66.80;100271.91;92921;1216;75265;-60
2021/07/25 02:46:00;;;;;;;16.60;11.70;;;;;;;18.33;66.95;100267.27;92961;1213;82341;-57
2021/07/25 02:48:09;;;;;;;12.60;11.30;;;;;;;18.28;67.23;100278.95;92940;1205;68253;-58
2021/07/25 02:50:18;;;;;;;12.20;10.90;;;;;;;18.24;67.14;100271.45;92947;1205;69948;-61
2021/07/25 02:52:26;;;;;;;13.00;11.30;;;;;;;18.19;67.44;100274.92;92987;1208;86878;-57
2021/07/25 02:54:33;;;;;;;13.60;11.50;;;;;;;18.16;67.66;100278.14;92953;1215;75424;-60
2021/07/25 02:56:41;;;;;;;14.00;12.30;;;;;;;18.08;67.75;100275.78;92921;1215;81276;-62
2021/07/25 02:58:48;;;;;;;13.20;11.30;;;;;;;18.02;68.20;100268.54;92858;1217;66139;-62
2021/07/25 03:00:56;;;;;;;12.80;11.50;;;;;;;18.03;68.12;100275.68;92935;1210;69842;-58
2021/07/25 03:03:04;;;;;;;14.00;11.00;;;;;;;18.02;68.30;100274.01;92966;1208;85743;-58
2021/07/25 03:05:16;;;;;;;14.80;12.60;;;;;;;18.01;68.39;100279.73;92964;1213;75246;-60
2021/07/25 03:07:23;;;;;;;13.50;12.00;;;;;;;18.00;68.56;100278.89;92947;1201;81677;-60
2021/07/25 03:09:31;;;;;;;14.30;11.30;;;;;;;18.02;68.74;100278.67;92922;1207;66625;-58
2021/07/25 03:11:40;;;;;;;13.30;11.00;;;;;;;18.01;68.86;100280.56;92932;1210;67935;-58
2021/07/25 03:13:50;;;;;;;13.10;11.50;;;;;;;18.05;68.95;100287.20;92871;1210;85742;-58
2021/07/25 03:16:02;;;;;;;13.60;11.10;;;;;;;18.11;69.18;100283.50;92954;1212;74784;-58
2021/07/25 03:18:10;;;;;;;12.90;11.50;;;;;;;18.15;69.19;100283.86;92948;1211;80598;-58
2021/07/25 03:20:19;;;;;;;14.70;12.10;;;;;;;18.17;69.27;100293.48;92958;1201;67043;-58
2021/07/25 03:22:27;;;;;;;13.60;11.70;;;;;;;18.21;69.35;100282.91;92955;1207;68504;-58
2021/07/25 03:24:38;;;;;;;14.30;12.10;;;;;;;18.24;69.43;100288.70;92966;1210;86792;-60
2021/07/25 03:26:45;;;;;;;13.60;11.50;;;;;;;18.32;69.55;100289.41;92958;1212;74182;-60
2021/07/25 03:28:56;;;;;;;12.60;11.20;;;;;;;18.38;69.74;100291.98;92960;1206;82299;-60
2021/07/25 03:31:04;;;;;;;12.70;11.50;;;;;;;18.44;70.00;100290.19;92938;1207;65612;-60
2021/07/25 03:33:12;;;;;;;15.70;12.30;;;;;;;18.48;69.93;100288.67;92967;1207;68345;-58
2021/07/25 03:35:20;;;;;;;14.30;10.80;;;;;;;18.53;70.20;100286.03;92968;1207;86439;-58
2021/07/25 03:37:28;;;;;;;13.90;11.30;;;;;;;18.59;70.21;100290.53;92923;1212;74594;-58
2021/07/25 03:39:39;;;;;;;12.40;11.00;;;;;;;18.65;70.43;100287.63;92938;1207;81500;-59
2021/07/25 03:41:46;;;;;;;13.40;11.60;;;;;;;18.73;70.54;100291.91;92885;1210;65258;-58
2021/07/25 03:43:54;;;;;;;13.90;11.40;;;;;;;18.79;70.50;100296.38;92956;1215;68096;-58
2021/07/25 03:46:02;;;;;;;12.50;11.10;;;;;;;18.96;70.70;100290.94;92939;1201;87893;-58
2021/07/25 03:48:14;;;;;;;12.10;10.90;;;;;;;19.38;70.42;100290.34;92943;1213;74732;-58
2021/07/25 03:50:22;;;;;;;12.20;10.70;;;;;;;19.73;70.03;100294.70;92922;1211;81692;-58
2021/07/25 03:52:34;;;;;;;11.40;10.30;;;;;;;20.13;70.03;100292.55;92957;1207;66124;-58
2021/07/25 03:54:43;;;;;;;11.70;10.50;;;;;;;20.81;69.65;100303.00;92949;1208;68867;-60
2021/07/25 03:56:50;;;;;;;12.20;10.70;;;;;;;21.44;68.62;100296.75;92917;1208;86500;-61
2021/07/25 03:58:58;;;;;;;14.50;11.00;;;;;;;22.02;68.12;100287.55;92950;1210;73831;-61
2021/07/25 04:01:06;;;;;;;11.80;10.50;;;;;;;22.60;67.25;100291.92;92934;1206;81788;-59
2021/07/25 04:03:13;;;;;;;12.30;10.50;;;;;;;23.02;66.46;100288.19;92936;1208;65298;-58
2021/07/25 04:05:21;;;;;;;12.70;10.60;;;;;;;23.35;65.78;100305.01;92937;1213;69282;-59
2021/07/25 04:07:29;;;;;;;11.30;10.20;;;;;;;23.75;65.15;100301.44;92961;1207;87186;-58
2021/07/25 04:09:36;;;;;;;10.60;9.50;;;;;;;24.12;64.29;100311.34;92945;1211;75076;-60
2021/07/25 04:11:45;;;;;;;11.80;10.20;;;;;;;24.46;63.69;100302.09;92927;1207;80663;-61
2021/07/25 04:13:52;;;;;;;13.30;10.90;;;;;;;25.01;62.53;100306.52;92952;1207;65962;-61
2021/07/25 04:16:00;;;;;;;11.90;10.70;;;;;;;25.44;61.44;100313.09;92966;1216;68423;-61
2021/07/25 04:18:10;;;;;;;12.90;10.50;;;;;;;25.77;61.15;100311.45;92935;1215;86968;-60
2021/07/25 04:20:19;;;;;;;11.60;10.40;;;;;;;26.25;59.25;100309.59;92928;1207;73879;-60
2021/07/25 04:22:26;;;;;;;12.50;10.80;;;;;;;26.43;58.60;100306.03;92947;1213;81079;-60
2021/07/25 04:24:34;;;;;;;11.80;9.90;;;;;;;26.52;58.47;100309.80;92947;1216;66545;-59
2021/07/25 04:26:43;;;;;;;11.50;10.40;;;;;;;26.23;58.04;100312.64;92846;1215;69730;-60
2021/07/25 04:28:52;;;;;;;11.50;10.20;;;;;;;25.41;57.90;100315.63;92833;1215;86250;-60
2021/07/25 04:31:01;;;;;;;11.20;10.10;;;;;;;24.81;58.39;100306.63;92920;1211;74006;-61
2021/07/25 04:33:10;;;;;;;11.40;10.30;;;;;;;24.26;58.92;100299.40;92897;1210;81225;-61
2021/07/25 04:35:20;;;;;;;11.20;10.10;;;;;;;24.04;58.92;100307.99;92947;1211;65659;-59
2021/07/25 04:37:30;;;;;;;11.60;10.40;;;;;;;23.86;59.30;100310.52;92952;1210;67952;-58
2021/07/25 04:39:39;;;;;;;10.80;9.60;;;;;;;23.68;59.40;100311.12;92951;1210;87121;-59
2021/07/25 04:41:53;;;;;;;10.90;9.90;;;;;;;23.69;59.45;100310.83;92967;1210;75439;-59
2021/07/25 04:44:14;;;;;;;10.20;8.80;;;;;;;23.88;59.75;100308.31;92922;1211;81560;-58
2021/07/25 04:46:29;;;;;;;12.90;10.40;;;;;;;24.56;58.88;100309.48;92903;1210;67108;-61
2021/07/25 04:48:49;;;;;;;10.70;9.60;;;;;;;24.96;58.10;100312.08;92872;1210;69128;-61
2021/07/25 04:51:04;;;;;;;11.40;9.10;;;;;;;25.21;57.89;100314.67;92937;1209;86206;-61
2021/07/25 04:53:25;;;;;;;10.20;9.00;;;;;;;25.94;57.05;100314.60;92958;1210;75542;-61
2021/07/25 04:55:37;;;;;;;9.90;8.80;;;;;;;26.85;55.88;100314.38;92943;1210;80234;-61
2021/07/25 04:57:46;;;;;;;10.20;9.00;;;;;;;27.56;55.24;100309.69;92960;1205;67233;-61
2021/07/25 04:59:58;;;;;;;10.00;9.00;;;;;;;28.01;51.92;100317.22;92994;1212;68536;-58
2021/07/25 05:02:14;;;;;;;11.00;8.60;;;;;;;28.30;52.41;100308.61;92933;1211;85398;-59
2021/07/25 05:04:26;;;;;;;11.00;8.50;;;;;;;28.76;51.13;100314.08;92946;1216;74404;-58
2021/07/25 05:06:38;;;;;;;10.90;8.80;;;;;;;28.99;50.37;100315.76;92945;1209;80688;-61
2021/07/25 05:08:48;;;;;;;9.20;8.30;;;;;;;29.33;49.62;100313.32;92913;1210;66798;-61
2021/07/25 05:11:12;;;;;;;11.00;9.10;;;;;;;29.51;48.62;100319.81;92956;1210;68312;-59
2021/07/25 05:13:25;;;;;;;11.70;9.10;;;;;;;29.65;48.30;100320.58;92924;1211;87065;-59
2021/07/25 05:15:37;;;;;;;9.50;8.70;;;;;;;29.91;47.53;100317.99;92965;1210;74808;-59
2021/07/25 05:17:51;;;;;;;9.20;8.00;;;;;;;29.95;46.54;100325.38;92939;1205;81261;-59
2021/07/25 05:20:08;;;;;;;9.50;8.60;;;;;;;30.00;46.47;100333.59;92793;1210;65491;-59
2021/07/25 05:22:30;;;;;;;9.40;8.50;;;;;;;30.11;46.39;100322.99;92957;1210;69023;-59
2021/07/25 05:24:48;;;;;;;10.10;8.70;;;;;;;30.22;45.83;100319.61;92968;1211;88182;-61
2021/07/25 05:27:00;;;;;;;9.60;8.60;;;;;;;30.46;45.56;100319.25;92989;1210;74779;-61
2021/07/25 05:29:08;;;;;;;9.60;8.60;;;;;;;30.38;45.17;100318.05;92943;1210;81507;-61
2021/07/25 05:31:17;;;;;;;9.40;8.00;;;;;;;30.26;44.80;100317.84;92847;1205;66773;-59
2021/07/25 05:33:26;;;;;;;9.30;8.30;;;;;;;30.19;44.95;100313.88;92941;1211;68397;-59
2021/07/25 05:35:33;;;;;;;9.20;8.20;;;;;;;30.25;45.20;100313.39;92902;1211;86304;-59
2021/07/25 05:37:41;;;;;;;9.80;8.10;;;;;;;30.16;44.93;100308.94;92902;1211;75400;-59
2021/07/25 05:39:49;;;;;;;9.20;8.30;;;;;;;30.09;45.15;100306.61;92899;1211;82108;-59
2021/07/25 05:41:56;;;;;;;9.20;8.10;;;;;;;29.98;45.11;100309.98;92913;1210;67322;-60
2021/07/25 05:44:04;;;;;;;8.50;7.70;;;;;;;30.03;44.59;100305.09;93069;1208;69040;-59
2021/07/25 05:46:15;;;;;;;10.20;8.60;;;;;;;30.02;44.72;100297.90;93068;1208;85493;-59
2021/07/25 05:48:22;;;;;;;8.40;7.60;;;;;;;29.97;44.04;100306.38;93063;1208;75730;-59
2021/07/25 05:50:30;;;;;;;10.60;9.00;;;;;;;29.69;45.12;100311.29;93084;1204;81914;-61
2021/07/25 05:52:54;;;;;;;10.00;8.40;;;;;;;29.55;44.66;100304.97;93092;1208;66897;-60
2021/07/25 05:55:01;;;;;;;10.30;8.50;;;;;;;29.21;44.59;100304.66;93088;1208;68069;-60
2021/07/25 05:57:09;;;;;;;9.40;8.20;;;;;;;29.08;45.26;100311.11;93068;1208;86675;-59
2021/07/25 05:59:17;;;;;;;9.60;8.60;;;;;;;29.21;44.89;100307.45;93105;1206;75583;-60
2021/07/25 06:01:24;;;;;;;11.50;8.20;;;;;;;29.16;45.63;100307.58;93118;1208;81947;-61
2021/07/25 06:03:32;;;;;;;9.90;8.80;;;;;;;28.98;45.72;100305.79;92973;1208;66847;-61
2021/07/25 06:05:40;;;;;;;10.10;9.00;;;;;;;28.99;45.81;100307.41;93108;1208;67944;-60
2021/07/25 06:07:48;;;;;;;9.50;8.60;;;;;;;28.94;46.02;100310.31;92886;1213;86928;-59
2021/07/25 06:09:55;;;;;;;10.00;8.90;;;;;;;28.81;46.04;100306.45;92872;1210;74977;-61
2021/07/25 06:12:03;;;;;;;9.10;8.30;;;;;;;28.90;45.38;100312.89;92835;1207;81678;-62
2021/07/25 06:14:11;;;;;;;10.20;8.40;;;;;;;28.99;46.35;100307.41;92863;1210;65702;-62
2021/07/25 06:16:19;;;;;;;9.40;8.40;;;;;;;29.11;46.35;100319.66;92884;1217;68119;-61
2021/07/25 06:18:27;;;;;;;9.70;8.80;;;;;;;29.29;45.67;100311.46;92905;1210;86249;-62
2021/07/25 06:20:35;;;;;;;9.50;8.60;;;;;;;29.25;45.00;100316.86;92857;1210;74094;-61
2021/07/25 06:22:45;;;;;;;9.30;8.30;;;;;;;29.21;45.43;100321.36;92929;1210;81772;-61
2021/07/25 06:24:53;;;;;;;10.20;9.10;;;;;;;29.38;45.20;100320.70;92926;1210;65457;-59
2021/07/25 06:27:04;;;;;;;9.80;7.70;;;;;;;29.41;45.06;100320.91;92950;1211;67870;-59
2021/07/25 06:29:12;;;;;;;9.80;8.70;;;;;;;29.79;44.90;100315.75;92963;1210;86604;-59
2021/07/25 06:31:20;;;;;;;12.70;9.10;;;;;;;29.90;44.50;100311.59;92967;1209;75129;-61
2021/07/25 06:33:29;;;;;;;9.60;8.20;;;;;;;29.93;44.34;100312.91;92917;1210;81810;-62
2021/07/25 06:35:39;;;;;;;9.80;8.90;;;;;;;29.91;44.29;100320.78;92947;1209;67156;-61
2021/07/25 06:37:47;;;;;;;9.30;8.50;;;;;;;29.98;44.16;100318.34;92901;1210;69212;-61
2021/07/25 06:39:54;;;;;;;10.70;8.80;;;;;;;29.77;44.51;100321.66;92968;1207;87096;-59
2021/07/25 06:42:02;;;;;;;9.70;8.70;;;;;;;29.70;44.09;100315.70;92968;1205;74536;-59
2021/07/25 06:44:10;;;;;;;9.00;8.10;;;;;;;29.63;44.28;100318.13;92919;1209;81183;-59
2021/07/25 06:46:17;;;;;;;10.70;8.40;;;;;;;29.48;44.41;100315.71;92969;1210;66835;-61
2021/07/25 06:48:27;;;;;;;9.60;8.50;;;;;;;29.31;44.68;100315.57;92936;1210;68234;-61
2021/07/25 06:50:35;;;;;;;10.70;8.40;;;;;;;29.40;44.50;100308.12;92936;1210;86326;-59
2021/07/25 06:52:43;;;;;;;9.50;8.60;;;;;;;29.39;44.67;100306.49;92938;1211;74027;-59
2021/07/25 06:54:50;;;;;;;11.40;9.90;;;;;;;29.44;44.98;100309.14;92926;1210;80354;-59
2021/07/25 06:56:58;;;;;;;9.60;8.60;;;;;;;29.64;45.05;100311.39;92952;1210;65721;-59
2021/07/25 06:59:06;;;;;;;11.60;8.60;;;;;;;29.86;44.35;100312.56;92928;1210;68618;-59
2021/07/25 07:01:13;;;;;;;10.80;8.30;;;;;;;29.95;44.54;100313.41;92912;1211;85875;-61
2021/07/25 07:03:22;;;;;;;10.10;8.20;;;;;;;29.99;44.10;100315.25;92934;1211;75148;-61
2021/07/25 07:05:32;;;;;;;9.30;8.40;;;;;;;29.97;43.71;100308.36;92907;1211;81453;-61
2021/07/25 07:07:39;;;;;;;10.50;8.60;;;;;;;30.11;44.31;100312.67;92920;1216;66228;-60
2021/07/25 07:09:47;;;;;;;10.20;9.20;;;;;;;30.29;43.73;100308.83;92947;1209;68103;-60
2021/07/25 07:11:54;;;;;;;10.20;8.20;;;;;;;30.25;43.47;100307.81;92902;1210;87300;-61
2021/07/25 07:14:02;;;;;;;10.20;9.20;;;;;;;30.45;43.64;100308.41;92932;1205;75173;-61
2021/07/25 07:16:10;;;;;;;9.70;8.70;;;;;;;30.74;43.71;100317.83;92855;1216;81303;-59
2021/07/25 07:18:19;;;;;;;9.90;8.90;;;;;;;31.26;43.04;100306.77;92896;1210;67350;-59
2021/07/25 07:20:28;;;;;;;9.10;8.20;;;;;;;31.54;43.18;100308.06;92937;1211;69543;-59
2021/07/25 07:22:36;;;;;;;10.00;9.10;;;;;;;32.09;42.84;100311.73;92933;1210;85549;-58
2021/07/25 07:24:46;;;;;;;9.00;8.20;;;;;;;32.50;41.52;100316.65;92936;1206;75368;-59
2021/07/25 07:26:54;;;;;;;8.70;7.90;;;;;;;33.04;41.27;100303.67;92933;1216;81001;-59
2021/07/25 07:29:01;;;;;;;10.40;8.70;;;;;;;33.62;40.87;100313.09;92914;1210;66970;-59
2021/07/25 07:31:09;;;;;;;10.10;8.40;;;;;;;34.03;39.84;100312.15;92952;1209;68614;-58
2021/07/25 07:33:22;;;;;;;9.90;8.80;;;;;;;34.23;39.31;100309.27;92931;1210;86698;-59
2021/07/25 07:35:30;;;;;;;10.20;9.00;;;;;;;34.75;38.45;100308.61;92941;1211;73643;-58
2021/07/25 07:37:37;;;;;;;9.60;8.10;;;;;;;34.71;37.65;100310.47;92915;1210;80554;-59
2021/07/25 07:39:46;;;;;;;9.60;8.50;;;;;;;34.91;37.92;100304.70;92880;1210;67449;-59
2021/07/25 07:41:54;;;;;;;9.00;8.10;;;;;;;35.30;37.28;100305.91;92947;1216;67848;-59
2021/07/25 07:44:01;;;;;;;9.80;8.10;;;;;;;35.83;36.41;100309.44;92921;1210;86228;-59
2021/07/25 07:46:09;;;;;;;8.80;7.90;;;;;;;35.99;35.11;100304.64;92931;1216;74335;-61
2021/07/25 07:48:18;;;;;;;8.40;7.60;;;;;;;36.20;34.44;100304.43;92937;1211;81738;-61
2021/07/25 07:50:26;;;;;;;9.00;7.80;;;;;;;36.59;34.78;100312.67;92939;1210;66102;-62
2021/07/25 07:52:34;;;;;;;8.00;7.30;;;;;;;37.05;33.81;100307.34;92944;1216;67686;-61
2021/07/25 07:54:45;;;;;;;8.20;7.40;;;;;;;37.57;33.23;100304.85;92902;1209;86742;-60
2021/07/25 07:56:53;;;;;;;8.00;7.20;;;;;;;37.80;32.09;100300.05;92919;1210;75515;-61
2021/07/25 07:59:00;;;;;;;8.50;7.70;;;;;;;38.00;32.16;100298.03;92901;1210;80298;-61
2021/07/25 08:01:09;;;;;;;8.50;7.80;;;;;;;38.33;31.92;100300.24;92889;1209;65362;-57
2021/07/25 08:03:17;;;;;;;8.80;6.90;;;;;;;38.58;31.87;100303.47;92934;1211;68061;-58
2021/07/25 08:05:24;;;;;;;7.40;6.60;;;;;;;38.69;31.45;100305.27;92926;1210;85940;-61
2021/07/25 08:07:32;;;;;;;7.30;6.50;;;;;;;38.15;31.02;100304.75;92951;1211;74700;-60
2021/07/25 08:09:43;;;;;;;9.40;7.30;;;;;;;38.67;30.82;100310.48;92897;1210;80859;-58
2021/07/25 08:11:50;;;;;;;7.70;6.90;;;;;;;38.70;30.14;100303.27;92893;1216;66487;-58
2021/07/25 08:13:58;;;;;;;7.70;6.80;;;;;;;38.92;30.56;100306.06;92918;1210;68446;-58
2021/07/25 08:16:06;;;;;;;8.40;7.00;;;;;;;38.89;29.17;100300.34;92932;1210;86501;-58
2021/07/25 08:18:14;;;;;;;7.90;6.80;;;;;;;38.72;29.76;100310.16;92938;1210;74635;-58
2021/07/25 08:20:22;;;;;;;8.30;7.50;;;;;;;38.92;29.43;100313.72;92912;1211;80364;-59
2021/07/25 08:22:29;;;;;;;8.40;7.20;;;;;;;38.77;29.79;100304.20;92917;1211;65885;-59
2021/07/25 08:24:39;;;;;;;8.00;7.30;;;;;;;38.49;28.83;100309.38;92934;1210;68230;-58
2021/07/25 08:26:49;;;;;;;8.70;6.60;;;;;;;38.53;29.64;100312.27;92939;1210;86987;-58
2021/07/25 08:28:57;;;;;;;7.40;6.70;;;;;;;38.81;29.91;100322.04;92920;1212;74959;-58
2021/07/25 08:31:04;;;;;;;7.60;6.90;;;;;;;38.95;29.43;100308.09;92929;1211;81294;-58
2021/07/25 08:33:12;;;;;;;7.50;6.40;;;;;;;39.10;29.07;100313.95;92931;1205;66892;-58
2021/07/25 08:35:20;;;;;;;8.70;6.90;;;;;;;39.18;28.97;100307.19;92912;1210;71653;-60
2021/07/25 08:37:28;;;;;;;7.30;6.40;;;;;;;39.11;28.40;100313.58;92901;1216;86183;-61
2021/07/25 08:39:40;;;;;;;8.90;6.80;;;;;;;38.79;28.21;100313.11;92961;1210;75881;-59
2021/07/25 08:42:05;;;;;;;7.20;6.60;;;;;;;38.70;28.56;100312.56;92939;1211;81554;-59
2021/07/25 08:44:50;;;;;;;6.90;6.10;;;;;;;38.79;28.87;100312.28;92942;1210;66192;-59
2021/07/25 08:46:59;;;;;;;7.90;7.20;;;;;;;38.78;28.38;100308.67;92962;1205;69676;-59
2021/07/25 08:49:17;;;;;;;7.30;6.30;;;;;;;38.71;29.06;100305.69;92934;1205;88338;-59
2021/07/25 08:51:33;;;;;;;7.40;6.70;;;;;;;38.70;29.28;100309.73;92938;1211;75435;-61
2021/07/25 08:53:58;;;;;;;7.10;6.50;;;;;;;38.73;29.38;100308.16;92947;1206;81118;-61
2021/07/25 08:56:08;;;;;;;9.00;6.50;;;;;;;38.84;29.03;100312.77;92906;1210;65689;-58
2021/07/25 08:58:18;;;;;;;7.10;6.40;;;;;;;38.83;28.41;100313.17;92956;1211;67992;-59
2021/07/25 09:00:27;;;;;;;7.60;6.70;;;;;;;38.79;28.54;100313.11;92952;1209;86957;-59
2021/07/25 09:02:36;;;;;;;7.20;6.10;;;;;;;38.50;28.83;100319.48;92946;1211;75024;-59
2021/07/25 09:04:44;;;;;;;7.40;6.70;;;;;;;38.49;28.95;100314.20;92922;1210;79897;-59
2021/07/25 09:06:55;;;;;;;7.00;6.40;;;;;;;38.03;28.54;100311.39;92920;1216;66145;-59
2021/07/25 09:09:06;;;;;;;8.30;6.40;;;;;;;37.78;29.55;100308.08;92917;1210;69771;-59
2021/07/25 09:11:14;;;;;;;7.60;6.80;;;;;;;37.91;29.66;100294.63;92949;1215;85645;-61
2021/07/25 09:13:22;;;;;;;7.80;6.50;;;;;;;37.66;29.10;100302.59;92923;1210;75245;-62
2021/07/25 09:15:33;;;;;;;8.00;6.70;;;;;;;37.33;29.17;100296.69;92908;1203;81923;-59
2021/07/25 09:17:41;;;;;;;7.20;6.50;;;;;;;37.34;28.95;100295.48;92914;1210;66381;-59
2021/07/25 09:20:19;;;;;;;7.20;6.60;;;;;;;37.09;29.78;100297.77;92959;1210;68892;-60
2021/07/25 09:22:26;;;;;;;9.90;6.90;;;;;;;36.87;29.87;100297.63;92917;1209;85498;-62
2021/07/25 09:24:37;;;;;;;8.40;6.90;;;;;;;36.56;29.80;100306.98;92924;1210;75650;-60
2021/07/25 09:26:58;;;;;;;7.80;6.70;;;;;;;36.36;31.17;100296.80;92903;1210;80257;-60
2021/07/25 09:29:23;;;;;;;7.20;6.50;;;;;;;36.32;30.87;100307.13;92950;1210;65974;-59
2021/07/25 09:31:32;;;;;;;6.80;6.10;;;;;;;35.73;31.51;100295.91;92921;1210;69144;-58
2021/07/25 09:33:41;;;;;;;7.40;6.00;;;;;;;35.46;32.21;100301.16;92910;1210;86596;-58
2021/07/25 09:35:50;;;;;;;8.60;6.60;;;;;;;35.22;32.27;100306.88;92945;1210;73906;-58
2021/07/25 09:38:11;;;;;;;7.10;6.40;;;;;;;34.89;32.61;100307.05;92908;1210;82061;-58
2021/07/25 09:40:29;;;;;;;7.40;6.40;;;;;;;34.61;33.44;100306.14;92923;1210;65460;-58
2021/07/25 09:42:37;;;;;;;8.10;6.60;;;;;;;34.44;34.04;100308.36;92936;1211;69211;-58
2021/07/25 09:44:54;;;;;;;7.90;7.10;;;;;;;34.21;33.49;100306.00;92903;1211;86954;-61
2021/07/25 09:47:03;;;;;;;8.00;6.60;;;;;;;34.05;34.47;100305.03;92946;1211;74370;-61
2021/07/25 09:49:10;;;;;;;8.90;6.60;;;;;;;33.95;33.79;100305.48;92950;1210;81271;-61
2021/07/25 09:51:26;;;;;;;7.10;6.40;;;;;;;33.73;34.52;100312.30;92917;1210;66059;-60
2021/07/25 09:53:47;;;;;;;7.70;6.80;;;;;;;33.52;34.56;100305.07;92949;1210;68843;-60
2021/07/25 09:55:56;;;;;;;8.30;7.20;;;;;;;33.40;34.97;100299.44;92975;1210;85387;-59
2021/07/25 09:58:05;;;;;;;7.60;6.90;;;;;;;33.30;35.77;100302.64;92918;1216;73909;-59